Time;durP1;ratioP1;P1;durP2;ratioP2;P2;SDS_P1;SDS_P2;PMS_P1;PMS_P2;Temp;Humidity;BMP_temperature;BMP_pressure;BME280_temperature;BME280_humidity;BME280_pressure;Samples;Min_cycle;Max_cycle;Signal;HPM_P1;HPM_P2
2022/11/25 00:00:45;;;;;;;;;;;10.50;99.90;;;;;;5051198;28;19951;-27
2022/11/25 00:03:10;;;;;;;;;;;10.50;99.90;;;;;;5051169;28;19920;-27
2022/11/25 00:05:36;;;;;;;;;;;10.50;99.90;;;;;;5051144;28;20003;-27
2022/11/25 00:08:01;;;;;;;;;;;10.50;99.90;;;;;;5050749;28;19913;-27
2022/11/25 00:10:27;;;;;;;;;;;10.50;99.90;;;;;;5051278;28;20442;-27
2022/11/25 00:12:52;;;;;;;;;;;10.50;99.90;;;;;;5050919;28;19912;-27
2022/11/25 00:15:18;;;;;;;;;;;10.50;99.90;;;;;;5050930;28;19916;-27
2022/11/25 00:17:43;;;;;;;;;;;10.50;99.90;;;;;;5050926;28;19913;-27
2022/11/25 00:20:09;;;;;;;;;;;10.50;99.90;;;;;;5050950;28;19909;-27
2022/11/25 00:22:34;;;;;;;;;;;10.50;99.90;;;;;;5051306;28;20011;-27
2022/11/25 00:25:00;;;;;;;;;;;10.50;99.90;;;;;;5051087;28;19916;-27
2022/11/25 00:27:25;;;;;;;;;;;10.50;99.90;;;;;;5050636;28;19912;-27
2022/11/25 00:29:51;;;;;;;;;;;10.40;99.90;;;;;;5052044;28;20425;-27
2022/11/25 00:32:16;;;;;;;;;;;10.50;99.90;;;;;;5054532;28;19909;-27
2022/11/25 00:34:42;;;;;;;;;;;10.40;99.90;;;;;;5054506;28;19935;-27
2022/11/25 00:37:07;;;;;;;;;;;10.50;99.90;;;;;;5054228;28;19921;-27
2022/11/25 00:39:33;;;;;;;;;;;10.40;99.90;;;;;;5054443;28;20371;-27
2022/11/25 00:44:42;;;;;;;;;;;10.40;99.90;;;;;;5055181;28;19935;-27
2022/11/25 00:47:15;;;;;;;;;;;10.50;99.90;;;;;;5053129;28;19917;-27
2022/11/25 00:49:45;;;;;;;;;;;10.40;99.90;;;;;;5053879;28;19948;-27
2022/11/25 00:52:18;;;;;;;;;;;10.40;99.90;;;;;;5054048;28;20346;-27
2022/11/25 00:54:43;;;;;;;;;;;10.40;99.90;;;;;;5053978;28;19951;-27
2022/11/25 00:57:09;;;;;;;;;;;10.40;99.90;;;;;;5054121;28;19958;-27
2022/11/25 00:59:35;;;;;;;;;;;10.40;99.90;;;;;;5053581;28;19928;-28
2022/11/25 01:02:00;;;;;;;;;;;10.40;99.90;;;;;;5053963;28;19924;-27
2022/11/25 01:04:26;;;;;;;;;;;10.40;99.90;;;;;;5053996;28;19909;-27
2022/11/25 01:06:53;;;;;;;;;;;10.40;99.90;;;;;;5053706;28;20362;-27
2022/11/25 01:09:18;;;;;;;;;;;10.40;99.90;;;;;;5053436;28;19909;-27
2022/11/25 01:11:44;;;;;;;;;;;10.40;99.90;;;;;;5054305;28;20334;-27
2022/11/25 01:14:09;;;;;;;;;;;10.40;99.90;;;;;;5053711;28;20461;-27
2022/11/25 01:16:35;;;;;;;;;;;10.40;99.90;;;;;;5053507;28;19966;-27
2022/11/25 01:19:01;;;;;;;;;;;10.40;99.90;;;;;;5053271;28;19919;-27
2022/11/25 01:21:28;;;;;;;;;;;10.40;99.90;;;;;;5053882;28;19913;-27
2022/11/25 01:23:54;;;;;;;;;;;10.40;99.90;;;;;;5053471;28;19939;-27
2022/11/25 01:26:21;;;;;;;;;;;10.40;99.90;;;;;;5053850;28;19923;-27
2022/11/25 01:28:46;;;;;;;;;;;10.30;99.90;;;;;;5053150;28;19913;-27
2022/11/25 01:31:17;;;;;;;;;;;10.30;99.90;;;;;;5053290;28;19913;-27
2022/11/25 01:33:43;;;;;;;;;;;10.30;99.90;;;;;;5053320;28;19909;-27
2022/11/25 01:36:10;;;;;;;;;;;10.30;99.90;;;;;;5052891;28;19995;-27
2022/11/25 01:38:35;;;;;;;;;;;10.30;99.90;;;;;;5052829;28;20195;-27
2022/11/25 01:41:01;;;;;;;;;;;10.40;99.90;;;;;;5052297;28;20370;-27
2022/11/25 01:43:28;;;;;;;;;;;10.40;99.90;;;;;;5053313;28;19909;-27
2022/11/25 01:45:56;;;;;;;;;;;10.30;99.90;;;;;;5053062;28;19908;-27
2022/11/25 01:48:25;;;;;;;;;;;10.30;99.90;;;;;;5052973;28;20317;-27
2022/11/25 01:50:51;;;;;;;;;;;10.30;99.90;;;;;;5053168;28;19909;-27
2022/11/25 01:53:19;;;;;;;;;;;10.30;99.90;;;;;;5052838;28;20408;-27
2022/11/25 01:55:47;;;;;;;;;;;10.30;99.90;;;;;;5052853;28;19915;-27
2022/11/25 01:58:21;;;;;;;;;;;10.30;99.90;;;;;;5052381;28;20454;-27
2022/11/25 02:00:50;;;;;;;;;;;10.30;99.90;;;;;;5052876;28;19909;-27
2022/11/25 02:03:21;;;;;;;;;;;10.30;99.90;;;;;;5054097;28;20330;-27
2022/11/25 02:05:46;;;;;;;;;;;10.40;99.90;;;;;;5053290;28;19917;-27
2022/11/25 02:08:15;;;;;;;;;;;10.30;99.90;;;;;;5053276;28;20281;-27
2022/11/25 02:10:42;;;;;;;;;;;10.30;99.90;;;;;;5053464;28;20111;-27
2022/11/25 02:13:08;;;;;;;;;;;10.30;99.90;;;;;;5053704;28;20446;-27
2022/11/25 02:15:34;;;;;;;;;;;10.30;99.90;;;;;;5053031;28;19909;-27
2022/11/25 02:18:00;;;;;;;;;;;10.30;99.90;;;;;;5052745;28;19978;-27
2022/11/25 02:20:25;;;;;;;;;;;10.40;99.90;;;;;;5052816;28;19923;-27
2022/11/25 02:22:55;;;;;;;;;;;10.30;99.90;;;;;;5053132;28;19913;-27
2022/11/25 02:25:39;;;;;;;;;;;10.30;99.90;;;;;;5054029;28;20301;-27
2022/11/25 02:28:09;;;;;;;;;;;10.30;99.90;;;;;;5052908;28;19909;-27
2022/11/25 02:30:35;;;;;;;;;;;10.30;99.90;;;;;;5052816;28;19948;-27
2022/11/25 02:33:00;;;;;;;;;;;10.30;99.90;;;;;;5052698;28;19963;-27
2022/11/25 02:35:36;;;;;;;;;;;10.30;99.90;;;;;;5052220;28;19909;-27
2022/11/25 02:38:08;;;;;;;;;;;10.30;99.90;;;;;;5052739;28;19962;-27
2022/11/25 02:40:36;;;;;;;;;;;10.30;99.90;;;;;;5052890;28;19908;-27
2022/11/25 02:43:02;;;;;;;;;;;10.20;99.90;;;;;;5052890;28;20278;-27
2022/11/25 02:45:34;;;;;;;;;;;10.20;99.90;;;;;;5052633;28;19909;-27
2022/11/25 02:47:59;;;;;;;;;;;10.20;99.90;;;;;;5052785;28;20408;-27
2022/11/25 02:50:25;;;;;;;;;;;10.20;99.90;;;;;;5052551;28;19912;-27
2022/11/25 02:52:50;;;;;;;;;;;10.20;99.90;;;;;;5052512;28;19948;-27
2022/11/25 02:55:16;;;;;;;;;;;10.20;99.90;;;;;;5052701;28;19952;-27
2022/11/25 02:57:42;;;;;;;;;;;10.20;99.90;;;;;;5052366;28;19913;-27
2022/11/25 03:00:07;;;;;;;;;;;10.20;99.90;;;;;;5050701;28;19924;-27
2022/11/25 03:02:33;;;;;;;;;;;10.20;99.90;;;;;;5052473;28;19913;-27
2022/11/25 03:04:58;;;;;;;;;;;10.20;99.90;;;;;;5051952;28;20005;-27
2022/11/25 03:07:24;;;;;;;;;;;10.20;99.90;;;;;;5052218;28;19923;-27
2022/11/25 03:09:49;;;;;;;;;;;10.20;99.90;;;;;;5052034;28;20366;-27
2022/11/25 03:12:18;;;;;;;;;;;10.20;99.90;;;;;;5052384;28;19916;-27
2022/11/25 03:14:43;;;;;;;;;;;10.20;99.90;;;;;;5052737;28;19916;-27
2022/11/25 03:17:09;;;;;;;;;;;10.20;99.90;;;;;;5052614;28;19913;-27
2022/11/25 03:19:34;;;;;;;;;;;10.20;99.90;;;;;;5051938;28;19909;-27
2022/11/25 03:21:59;;;;;;;;;;;10.20;99.90;;;;;;5052352;28;20366;-27
2022/11/25 03:24:25;;;;;;;;;;;10.20;99.90;;;;;;5052776;28;19913;-27
2022/11/25 03:26:50;;;;;;;;;;;10.30;99.90;;;;;;5052229;28;19913;-27
2022/11/25 03:29:16;;;;;;;;;;;10.20;99.90;;;;;;5052327;28;19913;-27
2022/11/25 03:31:41;;;;;;;;;;;10.20;99.90;;;;;;5052286;28;19913;-27
2022/11/25 03:34:07;;;;;;;;;;;10.20;99.90;;;;;;5051494;28;19909;-27
2022/11/25 03:36:32;;;;;;;;;;;10.20;99.90;;;;;;5052141;28;20464;-27
2022/11/25 03:38:58;;;;;;;;;;;10.20;99.90;;;;;;5052106;28;19909;-27
2022/11/25 03:41:23;;;;;;;;;;;10.20;99.90;;;;;;5052250;28;19913;-27
2022/11/25 03:43:49;;;;;;;;;;;10.20;99.90;;;;;;5052390;28;19964;-27
2022/11/25 03:46:14;;;;;;;;;;;10.20;99.90;;;;;;5052261;28;19967;-27
2022/11/25 03:48:40;;;;;;;;;;;10.20;99.90;;;;;;5052022;28;19909;-27
2022/11/25 03:51:05;;;;;;;;;;;10.20;99.90;;;;;;5052263;28;20016;-27
2022/11/25 03:53:31;;;;;;;;;;;10.20;99.90;;;;;;5053768;28;19948;-27
2022/11/25 03:55:56;;;;;;;;;;;10.20;99.90;;;;;;5059740;28;19912;-27
2022/11/25 03:58:22;;;;;;;;;;;10.20;99.90;;;;;;5061217;28;20390;-27
2022/11/25 04:00:47;;;;;;;;;;;10.20;99.90;;;;;;5060715;28;19913;-27
2022/11/25 04:03:13;;;;;;;;;;;10.10;99.90;;;;;;5055003;28;20019;-27
2022/11/25 04:05:39;;;;;;;;;;;10.10;99.90;;;;;;5054494;28;19924;-27
2022/11/25 04:08:04;;;;;;;;;;;10.10;99.90;;;;;;5055369;28;19909;-27
2022/11/25 04:10:30;;;;;;;;;;;10.10;99.90;;;;;;5055537;28;19913;-27
2022/11/25 04:12:55;;;;;;;;;;;10.10;99.90;;;;;;5054601;28;20003;-27
2022/11/25 04:15:21;;;;;;;;;;;10.20;99.90;;;;;;5054373;28;19970;-27
2022/11/25 04:17:46;;;;;;;;;;;10.20;99.90;;;;;;5055613;28;19956;-27
2022/11/25 04:20:12;;;;;;;;;;;10.20;99.90;;;;;;5055224;28;19956;-27
2022/11/25 04:22:37;;;;;;;;;;;10.10;99.90;;;;;;5055457;28;19959;-27
2022/11/25 04:25:03;;;;;;;;;;;10.10;99.90;;;;;;5055575;28;19912;-27
2022/11/25 04:27:29;;;;;;;;;;;10.10;99.90;;;;;;5055409;28;19913;-27
2022/11/25 04:29:54;;;;;;;;;;;10.10;99.90;;;;;;5055133;28;19913;-27
2022/11/25 04:32:20;;;;;;;;;;;10.10;99.90;;;;;;5054564;28;20354;-27
2022/11/25 04:34:45;;;;;;;;;;;10.10;99.90;;;;;;5054640;28;19916;-27
2022/11/25 04:37:11;;;;;;;;;;;10.10;99.90;;;;;;5054997;28;19962;-27
2022/11/25 04:39:36;;;;;;;;;;;10.10;99.90;;;;;;5054792;28;19908;-27
2022/11/25 04:44:46;;;;;;;;;;;10.10;99.90;;;;;;5055319;28;19916;-27
2022/11/25 04:47:12;;;;;;;;;;;10.10;99.90;;;;;;5054996;28;19909;-27
2022/11/25 04:49:37;;;;;;;;;;;10.10;99.90;;;;;;5054598;28;19944;-27
2022/11/25 04:52:03;;;;;;;;;;;10.10;99.90;;;;;;5054933;28;19908;-27
2022/11/25 04:54:28;;;;;;;;;;;10.10;99.90;;;;;;5055133;28;20290;-27
2022/11/25 04:56:54;;;;;;;;;;;10.10;99.90;;;;;;5054910;28;19913;-27
2022/11/25 05:02:03;;;;;;;;;;;10.10;99.90;;;;;;5054952;28;20428;-27
2022/11/25 05:04:29;;;;;;;;;;;10.10;99.90;;;;;;5054629;28;19909;-27
2022/11/25 05:06:54;;;;;;;;;;;10.10;99.90;;;;;;5053657;28;19995;-27
2022/11/25 05:09:20;;;;;;;;;;;10.10;99.90;;;;;;5054078;28;20418;-27
2022/11/25 05:11:46;;;;;;;;;;;10.10;99.90;;;;;;5054642;28;20398;-27
2022/11/25 05:14:11;;;;;;;;;;;10.10;99.90;;;;;;5054483;28;19913;-27
2022/11/25 05:16:37;;;;;;;;;;;10.10;99.90;;;;;;5054482;28;19958;-27
2022/11/25 05:19:02;;;;;;;;;;;10.10;99.90;;;;;;5054050;28;20381;-27
2022/11/25 05:21:28;;;;;;;;;;;10.10;99.90;;;;;;5054496;28;19913;-27
2022/11/25 05:23:54;;;;;;;;;;;10.10;99.90;;;;;;5053146;28;19963;-27
2022/11/25 05:26:19;;;;;;;;;;;10.10;99.90;;;;;;5054408;28;19909;-27
2022/11/25 05:28:45;;;;;;;;;;;10.10;99.90;;;;;;5053686;28;19920;-27
2022/11/25 05:31:10;;;;;;;;;;;10.10;99.90;;;;;;5054356;28;20004;-27
2022/11/25 05:33:36;;;;;;;;;;;10.00;99.90;;;;;;5054566;28;19955;-27
2022/11/25 05:36:02;;;;;;;;;;;10.10;99.90;;;;;;5053010;28;20638;-27
2022/11/25 05:38:28;;;;;;;;;;;10.10;99.90;;;;;;5054214;28;19920;-27
2022/11/25 05:40:59;;;;;;;;;;;10.10;99.90;;;;;;5054055;28;19916;-27
2022/11/25 05:43:24;;;;;;;;;;;10.00;99.90;;;;;;5054312;28;20440;-27
2022/11/25 05:45:50;;;;;;;;;;;10.10;99.90;;;;;;5054431;28;19909;-27
2022/11/25 05:48:15;;;;;;;;;;;10.00;99.90;;;;;;5053734;28;19912;-27
2022/11/25 05:50:41;;;;;;;;;;;10.00;99.90;;;;;;5053874;28;20313;-27
2022/11/25 05:53:06;;;;;;;;;;;10.00;99.90;;;;;;5054094;28;19909;-27
2022/11/25 05:55:32;;;;;;;;;;;10.10;99.90;;;;;;5053985;28;19959;-27
2022/11/25 05:57:58;;;;;;;;;;;10.00;99.90;;;;;;5053489;28;20317;-27
2022/11/25 06:00:23;;;;;;;;;;;10.00;99.90;;;;;;5053720;28;19920;-27
2022/11/25 06:02:49;;;;;;;;;;;10.00;99.90;;;;;;5053655;28;19923;-27
2022/11/25 06:05:14;;;;;;;;;;;10.00;99.90;;;;;;5052407;28;20378;-27
2022/11/25 06:07:40;;;;;;;;;;;10.00;99.90;;;;;;5053565;28;19912;-27
2022/11/25 06:10:06;;;;;;;;;;;10.00;99.90;;;;;;5053717;28;19999;-27
2022/11/25 06:12:31;;;;;;;;;;;10.00;99.90;;;;;;5053391;28;19955;-27
2022/11/25 06:14:57;;;;;;;;;;;10.00;99.90;;;;;;5053859;28;19910;-27
2022/11/25 06:17:22;;;;;;;;;;;10.00;99.90;;;;;;5053595;28;19909;-27
2022/11/25 06:19:48;;;;;;;;;;;10.00;99.90;;;;;;5053066;28;20251;-27
2022/11/25 06:22:13;;;;;;;;;;;10.00;99.90;;;;;;5053146;28;20389;-27
2022/11/25 06:24:39;;;;;;;;;;;10.00;99.90;;;;;;5053106;28;19962;-27
2022/11/25 06:27:04;;;;;;;;;;;10.00;99.90;;;;;;5052619;28;19912;-27
2022/11/25 06:29:30;;;;;;;;;;;10.00;99.90;;;;;;5052367;28;20062;-27
2022/11/25 06:31:55;;;;;;;;;;;10.00;99.90;;;;;;5052822;28;19928;-27
2022/11/25 06:34:21;;;;;;;;;;;10.00;99.90;;;;;;5052339;28;19909;-27
2022/11/25 06:36:47;;;;;;;;;;;10.00;99.90;;;;;;5052877;28;19908;-27
2022/11/25 06:39:13;;;;;;;;;;;10.00;99.90;;;;;;5051021;28;19936;-27
2022/11/25 06:41:38;;;;;;;;;;;9.90;99.90;;;;;;5052616;28;20366;-27
2022/11/25 06:44:04;;;;;;;;;;;10.00;99.90;;;;;;5052895;28;19967;-27
2022/11/25 06:46:30;;;;;;;;;;;10.00;99.90;;;;;;5052469;28;19909;-27
2022/11/25 06:48:57;;;;;;;;;;;10.00;99.90;;;;;;5052072;28;20541;-27
2022/11/25 06:51:23;;;;;;;;;;;9.90;99.90;;;;;;5052503;28;19931;-27
2022/11/25 06:53:48;;;;;;;;;;;9.90;99.90;;;;;;5052555;28;20366;-27
2022/11/25 06:56:19;;;;;;;;;;;9.90;99.90;;;;;;5052683;28;20227;-27
2022/11/25 06:58:45;;;;;;;;;;;10.00;99.90;;;;;;5050889;28;19952;-27
2022/11/25 07:01:15;;;;;;;;;;;10.00;99.90;;;;;;5052376;28;19913;-27
2022/11/25 07:03:42;;;;;;;;;;;10.00;99.90;;;;;;5052301;28;19944;-27
2022/11/25 07:06:08;;;;;;;;;;;10.00;99.90;;;;;;5051381;28;20298;-27
2022/11/25 07:08:34;;;;;;;;;;;10.00;99.90;;;;;;5051990;28;19909;-27
2022/11/25 07:11:07;;;;;;;;;;;10.00;99.90;;;;;;5052334;28;20324;-27
2022/11/25 07:13:33;;;;;;;;;;;10.00;99.90;;;;;;5052598;28;19913;-27
2022/11/25 07:15:59;;;;;;;;;;;10.00;99.90;;;;;;5052379;28;20335;-27
2022/11/25 07:18:24;;;;;;;;;;;10.00;99.90;;;;;;5051976;28;20393;-27
2022/11/25 07:20:50;;;;;;;;;;;10.00;99.90;;;;;;5052480;28;19959;-27
2022/11/25 07:23:15;;;;;;;;;;;9.90;99.90;;;;;;5052309;28;19920;-27
2022/11/25 07:25:41;;;;;;;;;;;9.90;99.90;;;;;;5052129;28;19909;-27
2022/11/25 07:28:06;;;;;;;;;;;9.90;99.90;;;;;;5051726;28;20385;-27
2022/11/25 07:30:32;;;;;;;;;;;10.00;99.90;;;;;;5052390;28;19913;-27
2022/11/25 07:32:57;;;;;;;;;;;9.90;99.90;;;;;;5052312;28;19913;-27
2022/11/25 07:35:23;;;;;;;;;;;9.90;99.90;;;;;;5051307;28;20011;-27
2022/11/25 07:37:48;;;;;;;;;;;9.90;99.90;;;;;;5052515;28;19909;-27
2022/11/25 07:40:14;;;;;;;;;;;9.90;99.90;;;;;;5054824;28;19912;-27
2022/11/25 07:42:40;;;;;;;;;;;9.90;99.90;;;;;;5056318;28;19944;-27
2022/11/25 07:45:05;;;;;;;;;;;9.90;99.90;;;;;;5056601;28;20279;-27
2022/11/25 07:47:33;;;;;;;;;;;9.90;99.90;;;;;;5055962;28;19947;-27
2022/11/25 07:49:58;;;;;;;;;;;9.90;99.90;;;;;;5056029;28;19908;-27
2022/11/25 07:52:23;;;;;;;;;;;9.90;99.90;;;;;;5056135;28;20007;-27
2022/11/25 07:54:49;;;;;;;;;;;9.90;99.90;;;;;;5056357;28;20424;-27
2022/11/25 07:57:14;;;;;;;;;;;9.90;99.90;;;;;;5056202;28;19913;-27
2022/11/25 07:59:40;;;;;;;;;;;9.90;99.90;;;;;;5055561;28;19909;-27
2022/11/25 08:02:07;;;;;;;;;;;9.90;99.90;;;;;;5056549;28;19916;-27
2022/11/25 08:04:33;;;;;;;;;;;9.90;99.90;;;;;;5055022;28;19916;-27
2022/11/25 08:06:59;;;;;;;;;;;9.90;99.90;;;;;;5055814;28;19943;-27
2022/11/25 08:09:24;;;;;;;;;;;9.90;99.90;;;;;;5055921;28;19919;-27
2022/11/25 08:11:50;;;;;;;;;;;9.90;99.90;;;;;;5055997;28;19917;-27
2022/11/25 08:14:16;;;;;;;;;;;9.90;99.90;;;;;;5055683;28;19946;-27
2022/11/25 08:16:42;;;;;;;;;;;9.90;99.90;;;;;;5057746;28;19944;-27
2022/11/25 08:19:10;;;;;;;;;;;9.60;99.90;;;;;;5059809;28;19986;-27
2022/11/25 08:21:36;;;;;;;;;;;9.40;99.90;;;;;;5063099;28;19923;-27
2022/11/25 08:24:02;;;;;;;;;;;9.40;99.90;;;;;;5064626;28;19909;-27
2022/11/25 08:26:29;;;;;;;;;;;9.40;99.90;;;;;;5060516;28;19912;-27
2022/11/25 08:28:57;;;;;;;;;;;9.50;99.90;;;;;;5054517;28;19944;-27
2022/11/25 08:31:25;;;;;;;;;;;9.50;99.90;;;;;;5054844;28;19916;-27
2022/11/25 08:33:51;;;;;;;;;;;9.60;99.90;;;;;;5054747;28;19966;-27
2022/11/25 08:36:17;;;;;;;;;;;9.60;99.90;;;;;;5054334;28;20003;-27
2022/11/25 08:38:43;;;;;;;;;;;9.60;99.90;;;;;;5054078;28;19909;-27
2022/11/25 08:41:10;;;;;;;;;;;9.70;99.90;;;;;;5054833;28;19915;-27
2022/11/25 08:43:35;;;;;;;;;;;9.70;99.90;;;;;;5054343;28;19909;-27
2022/11/25 08:46:05;;;;;;;;;;;9.70;99.90;;;;;;5054132;28;20431;-27
2022/11/25 08:48:31;;;;;;;;;;;9.70;99.90;;;;;;5053858;28;19908;-27
2022/11/25 08:50:57;;;;;;;;;;;9.70;99.90;;;;;;5053752;28;19912;-27
2022/11/25 08:53:22;;;;;;;;;;;9.70;99.90;;;;;;5054188;28;20000;-27
2022/11/25 08:55:48;;;;;;;;;;;9.80;99.90;;;;;;5054059;28;20011;-27
2022/11/25 08:58:14;;;;;;;;;;;9.80;99.90;;;;;;5053586;28;20000;-26
2022/11/25 09:00:40;;;;;;;;;;;9.70;99.90;;;;;;5053943;28;19917;-26
2022/11/25 09:03:06;;;;;;;;;;;9.80;99.90;;;;;;5054051;28;19975;-26
2022/11/25 09:05:34;;;;;;;;;;;9.80;99.90;;;;;;5053643;28;20382;-26
2022/11/25 09:08:04;;;;;;;;;;;9.80;99.90;;;;;;5053396;28;19979;-26
2022/11/25 09:10:30;;;;;;;;;;;9.80;99.90;;;;;;5053740;28;19909;-26
2022/11/25 09:12:56;;;;;;;;;;;9.80;99.90;;;;;;5054281;28;20354;-26
2022/11/25 09:15:21;;;;;;;;;;;9.80;99.90;;;;;;5053525;28;19944;-26
2022/11/25 09:17:47;;;;;;;;;;;9.80;99.90;;;;;;5053594;28;19904;-26
2022/11/25 09:20:12;;;;;;;;;;;9.80;99.90;;;;;;5053341;28;19913;-26
2022/11/25 09:22:38;;;;;;;;;;;9.80;99.90;;;;;;5053565;28;20015;-26
2022/11/25 09:25:04;;;;;;;;;;;9.80;99.90;;;;;;5053413;28;19919;-26
2022/11/25 09:27:30;;;;;;;;;;;9.80;99.90;;;;;;5053483;28;19909;-26
2022/11/25 09:29:56;;;;;;;;;;;9.80;99.90;;;;;;5052959;28;19997;-26
2022/11/25 09:32:21;;;;;;;;;;;9.80;99.90;;;;;;5053355;28;19916;-26
2022/11/25 09:34:47;;;;;;;;;;;9.80;99.90;;;;;;5053359;28;19909;-26
2022/11/25 09:37:12;;;;;;;;;;;9.80;99.90;;;;;;5053154;28;19908;-26
2022/11/25 09:39:38;;;;;;;;;;;9.80;99.90;;;;;;5052666;28;19908;-26
2022/11/25 09:48:05;;;;;;;;;;;9.80;99.90;;;;;;5053165;28;19920;-26
2022/11/25 09:50:49;;;;;;;;;;;9.80;99.90;;;;;;5052979;28;20003;-26
2022/11/25 09:53:16;;;;;;;;;;;9.80;99.90;;;;;;5053030;28;20286;-26
2022/11/25 09:55:43;;;;;;;;;;;9.80;99.90;;;;;;5053007;28;19912;-26
2022/11/25 09:58:15;;;;;;;;;;;9.80;99.90;;;;;;5052452;28;19909;-26
2022/11/25 10:00:42;;;;;;;;;;;9.80;99.90;;;;;;5052920;28;20344;-26
2022/11/25 10:03:13;;;;;;;;;;;9.80;99.90;;;;;;5051889;28;19912;-26
2022/11/25 10:05:51;;;;;;;;;;;9.80;99.90;;;;;;5052701;28;20266;-26
2022/11/25 10:08:19;;;;;;;;;;;9.80;99.90;;;;;;5052385;28;19917;-26
2022/11/25 10:10:46;;;;;;;;;;;9.80;99.90;;;;;;5052796;28;19912;-26
2022/11/25 10:13:15;;;;;;;;;;;9.90;99.90;;;;;;5052726;28;19917;-26
2022/11/25 10:15:44;;;;;;;;;;;9.90;99.90;;;;;;5052938;28;19913;-26
2022/11/25 10:18:14;;;;;;;;;;;10.00;99.90;;;;;;5052480;28;19909;-26
2022/11/25 10:20:40;;;;;;;;;;;10.00;99.90;;;;;;5052729;28;19909;-26
2022/11/25 10:23:11;;;;;;;;;;;10.00;99.90;;;;;;5052501;28;20351;-26
2022/11/25 10:25:38;;;;;;;;;;;10.00;99.90;;;;;;5052381;28;20293;-26
2022/11/25 10:28:19;;;;;;;;;;;10.00;99.90;;;;;;5051897;28;19916;-26
2022/11/25 10:30:45;;;;;;;;;;;10.00;99.90;;;;;;5052406;28;19909;-26
2022/11/25 10:33:21;;;;;;;;;;;10.10;99.90;;;;;;5052281;28;19915;-26
2022/11/25 10:35:52;;;;;;;;;;;10.10;99.90;;;;;;5052172;28;19917;-26
2022/11/25 10:41:17;;;;;;;9.55;3.40;;;12.10;99.90;;;;;;5129437;27;20159;-44
2022/11/25 10:43:45;;;;;;;5.00;3.00;;;10.60;99.90;;;;;;5129520;28;20076;-47
2022/11/25 10:46:49;;;;;;;9.52;3.10;;;10.70;99.90;;;;;;5129400;27;20612;-45
2022/11/25 10:49:28;;;;;;;10.68;3.75;;;10.90;99.90;;;;;;5119085;28;20043;-50
2022/11/25 10:51:56;;;;;;;14.07;3.50;;;11.00;99.90;;;;;;5129293;28;20039;-46
2022/11/25 10:54:24;;;;;;;7.78;3.28;;;10.90;99.90;;;;;;5129222;27;20027;-44
2022/11/25 10:56:55;;;;;;;6.28;2.85;;;10.80;99.90;;;;;;5129124;27;20204;-44
2022/11/25 10:59:36;;;;;;;10.07;3.40;;;10.70;99.90;;;;;;5128388;28;20380;-45
2022/11/25 11:02:27;;;;;;;6.57;2.67;;;10.70;99.90;;;;;;5129051;28;20433;-45
2022/11/25 11:04:53;;;;;;;7.10;2.88;;;10.60;99.90;;;;;;5129104;27;20039;-52
2022/11/25 11:07:19;;;;;;;7.28;3.13;;;10.50;99.90;;;;;;5128863;27;20023;-44
2022/11/25 11:09:45;;;;;;;8.98;3.00;;;10.50;99.90;;;;;;5128411;28;20153;-46
2022/11/25 11:12:27;;;;;;;9.23;2.97;;;10.40;99.90;;;;;;5128882;28;20114;-44
2022/11/25 11:15:26;;;;;;;9.38;2.92;;;10.40;99.90;;;;;;5128898;27;20080;-45
2022/11/25 11:17:53;;;;;;;7.20;2.85;;;10.30;99.90;;;;;;5128494;27;20031;-49
2022/11/25 11:20:26;;;;;;;6.57;2.88;;;10.30;99.90;;;;;;5128145;27;20075;-44
2022/11/25 11:23:03;;;;;;;5.28;2.72;;;10.30;99.90;;;;;;5128863;27;20080;-47
2022/11/25 11:25:32;;;;;;;9.70;2.92;;;10.20;99.90;;;;;;5128544;27;20384;-46
2022/11/25 11:27:59;;;;;;;5.85;2.58;;;10.20;99.90;;;;;;5128025;27;20019;-50
2022/11/25 11:30:28;;;;;;;7.13;2.60;;;10.20;99.90;;;;;;5128418;27;20027;-46
2022/11/25 11:33:06;;;;;;;6.72;2.80;;;10.20;99.90;;;;;;5128359;27;20024;-44
2022/11/25 11:35:52;;;;;;;5.03;2.28;;;10.10;99.90;;;;;;5128242;27;20031;-45
2022/11/25 11:38:56;;;;;;;6.10;2.70;;;10.10;99.90;;;;;;5127908;28;20342;-44
2022/11/25 11:42:04;;;;;;;4.25;2.45;;;10.10;99.90;;;;;;5128356;27;20024;-45
2022/11/25 11:44:32;;;;;;;5.45;2.45;;;10.10;99.90;;;;;;5084827;28;20028;-47
2022/11/25 11:47:23;;;;;;;5.25;2.88;;;10.00;99.90;;;;;;5119679;28;20032;-43
2022/11/25 11:50:19;;;;;;;6.10;2.35;;;10.00;99.90;;;;;;5127731;27;20027;-50
2022/11/25 11:53:01;;;;;;;3.88;2.40;;;10.00;99.90;;;;;;5113949;28;20032;-44
2022/11/25 11:55:57;;;;;;;6.68;2.88;;;10.00;99.90;;;;;;5114618;28;20023;-46
2022/11/25 11:58:49;;;;;;;5.68;2.60;;;10.00;99.90;;;;;;5113766;27;20446;-48
2022/11/25 12:01:20;;;;;;;5.45;2.17;;;10.50;99.90;;;;;;5114291;28;20022;-44
2022/11/25 12:04:13;;;;;;;4.22;2.10;;;12.10;99.90;;;;;;5114232;28;20024;-49
2022/11/25 12:06:43;;;;;;;4.53;2.15;;;14.10;99.90;;;;;;5114107;28;20541;-45
2022/11/25 12:09:15;;;;;;;4.50;2.10;;;14.80;98.60;;;;;;5113775;28;20027;-47
2022/11/25 12:11:47;;;;;;;4.20;2.10;;;14.40;98.40;;;;;;5114083;28;20035;-45
2022/11/25 12:14:35;;;;;;;5.57;2.35;;;13.70;98.90;;;;;;5114156;28;20476;-46
2022/11/25 12:17:06;;;;;;;5.75;2.08;;;13.00;99.70;;;;;;5113926;28;20039;-46
2022/11/25 12:19:37;;;;;;;4.93;2.20;;;12.40;99.90;;;;;;5113643;28;20038;-51
2022/11/25 12:22:17;;;;;;;5.20;2.47;;;11.90;99.90;;;;;;5114052;28;20069;-45
2022/11/25 12:25:00;;;;;;;4.55;2.20;;;11.50;99.90;;;;;;5113879;28;20023;-48
2022/11/25 12:27:52;;;;;;;3.40;2.00;;;11.20;99.90;;;;;;5113745;28;20388;-45
2022/11/25 12:30:19;;;;;;;7.10;2.17;;;10.90;99.90;;;;;;5113621;28;20468;-46
2022/11/25 12:32:57;;;;;;;4.72;2.20;;;10.80;99.90;;;;;;5113783;28;20036;-45
2022/11/25 12:35:47;;;;;;;4.18;2.22;;;10.60;99.90;;;;;;5112630;27;20031;-48
2022/11/25 12:38:25;;;;;;;4.75;2.35;;;10.50;99.90;;;;;;5113034;28;20024;-46
2022/11/25 12:41:12;;;;;;;3.90;2.10;;;10.40;99.90;;;;;;5113215;28;20019;-45
2022/11/25 12:44:22;;;;;;;7.28;2.47;;;10.30;99.90;;;;;;5113721;28;20027;-46
2022/11/25 12:46:50;;;;;;;4.00;2.38;;;10.30;99.90;;;;;;5093076;28;20028;-49
2022/11/25 12:49:22;;;;;;;4.65;2.30;;;10.20;99.90;;;;;;5112772;28;20042;-45
2022/11/25 12:52:09;;;;;;;5.07;2.00;;;10.20;99.90;;;;;;5113297;28;20070;-49
2022/11/25 12:55:09;;;;;;;4.35;2.15;;;10.20;99.90;;;;;;5113316;28;20020;-45
2022/11/25 12:57:49;;;;;;;4.75;2.10;;;10.10;99.90;;;;;;5113004;28;20489;-45
2022/11/25 13:00:25;;;;;;;3.17;1.85;;;10.10;99.90;;;;;;5112792;28;20028;-44
2022/11/25 13:03:22;;;;;;;3.45;1.98;;;10.10;99.90;;;;;;5112031;28;20027;-46
2022/11/25 13:06:18;;;;;;;5.00;2.60;;;10.10;99.90;;;;;;5112868;28;20024;-45
2022/11/25 13:08:58;;;;;;;4.97;2.47;;;10.10;99.90;;;;;;5112667;28;20031;-51
2022/11/25 13:12:07;;;;;;;4.88;2.42;;;10.00;99.90;;;;;;5112935;28;20024;-45
2022/11/25 13:14:57;;;;;;;6.28;2.10;;;10.00;99.90;;;;;;5092668;28;20039;-45
2022/11/25 13:17:23;;;;;;;3.47;1.85;;;10.00;99.90;;;;;;5112668;28;20059;-46
2022/11/25 13:19:49;;;;;;;4.90;2.25;;;10.10;99.90;;;;;;5112143;28;20062;-48
2022/11/25 13:22:28;;;;;;;3.85;2.15;;;10.10;99.90;;;;;;5112651;28;20051;-53
2022/11/25 13:24:56;;;;;;;5.03;2.30;;;10.00;99.90;;;;;;5112660;28;20408;-45
2022/11/25 13:27:41;;;;;;;4.40;2.15;;;10.10;99.90;;;;;;5112442;28;20461;-44
2022/11/25 13:30:37;;;;;;;4.65;2.40;;;10.00;99.90;;;;;;5112120;28;20030;-48
2022/11/25 13:33:08;;;;;;;4.15;2.25;;;10.10;99.90;;;;;;5111303;28;20515;-45
2022/11/25 13:35:35;;;;;;;4.57;2.17;;;10.00;99.90;;;;;;5111690;28;20056;-45
2022/11/25 13:38:06;;;;;;;4.70;1.95;;;10.10;99.90;;;;;;5111967;28;20031;-45
2022/11/25 13:40:37;;;;;;;3.78;1.88;;;10.10;99.90;;;;;;5112229;28;20028;-48
2022/11/25 13:43:04;;;;;;;3.08;1.92;;;10.10;99.90;;;;;;5112382;28;20059;-46
2022/11/25 13:45:38;;;;;;;4.25;2.13;;;10.10;99.90;;;;;;5112299;28;20055;-51
2022/11/25 13:48:25;;;;;;;4.40;2.40;;;10.10;99.90;;;;;;5111914;28;20324;-44
2022/11/25 13:51:14;;;;;;;5.20;2.20;;;10.10;99.90;;;;;;5112247;28;20059;-48
2022/11/25 13:53:40;;;;;;;5.00;2.03;;;10.10;99.90;;;;;;5112325;28;20031;-45
2022/11/25 13:56:24;;;;;;;3.72;2.05;;;10.10;99.90;;;;;;5112076;28;20200;-44
2022/11/25 13:59:08;;;;;;;3.67;2.03;;;10.10;99.90;;;;;;5111546;28;20461;-45
2022/11/25 14:01:37;;;;;;;4.88;2.22;;;10.20;99.90;;;;;;5111840;28;20026;-47
2022/11/25 14:04:08;;;;;;;4.72;1.90;;;10.10;99.90;;;;;;5111932;28;20027;-45
2022/11/25 14:07:08;;;;;;;4.32;2.05;;;10.10;99.90;;;;;;5111971;28;20019;-45
2022/11/25 14:10:01;;;;;;;5.18;2.00;;;10.10;99.90;;;;;;5107724;28;20036;-43
2022/11/25 14:12:27;;;;;;;5.05;2.25;;;10.10;99.90;;;;;;5111792;28;20040;-46
2022/11/25 14:15:21;;;;;;;7.22;2.08;;;10.10;99.90;;;;;;5111539;28;20031;-50
2022/11/25 14:18:06;;;;;;;4.25;2.33;;;10.10;99.90;;;;;;5111599;28;20081;-50
2022/11/25 14:20:49;;;;;;;5.95;2.00;;;10.10;99.90;;;;;;5111636;28;20495;-46
2022/11/25 14:23:48;;;;;;;5.88;1.77;;;10.10;99.90;;;;;;5111636;28;20030;-44
2022/11/25 14:26:32;;;;;;;5.15;2.20;;;10.10;99.90;;;;;;5111585;28;20099;-46